Celebrity Mercury — 9HJG9 — position and weather

sailwx.info

Track history (hours):
 
Tides and Currents Weather Stations Pressure Air Temp Water Temp Dewpoint Dewpoint Depression Visibility Wind Speed Wind Dir Waves Ship Positions

Celebrity Mercury

Last reported at 2017-Jun-25 08:28 UTC. Time now 2017-Jun-25 08:39 UTC.
Position N 35°53' E 014°31'.

Length 264 m; draft 8.5 m.

Type: Passenger vessel. MMSI: 249053000.

Date/timePositionNaut miles runAvg speedWind from/ knotsBaromVisibWave heightAir tempDewpointWater temp
2017-Jun-25 08:28N 35°53' E 014°31'0 0.0
2017-Jun-25 07:55N 35°53' E 014°31'0 0.0
2017-Jun-25 07:28N 35°53' E 014°31'0 0.0
2017-Jun-25 06:58N 35°53' E 014°31'0 0.0
2017-Jun-25 06:28N 35°53' E 014°31'0 0.0
2017-Jun-25 05:55N 35°53' E 014°31'0 0.0
2017-Jun-25 05:28N 35°53' E 014°31'0 0.0
2017-Jun-25 04:58N 35°53' E 014°31'0 0.0
2017-Jun-25 04:28N 35°53' E 014°31'0 0.0
2017-Jun-25 03:58N 35°53' E 014°31'0 0.0
2017-Jun-25 03:28N 35°53' E 014°31'0 0.0
2017-Jun-25 02:58N 35°53' E 014°31'0 0.0
2017-Jun-25 02:30N 35°53' E 014°31'0 0.4
2017-Jun-25 02:00N 35°54' E 014°31'4 7.6
2017-Jun-25 01:30N 35°56' E 014°35'611.8
2017-Jun-25 01:00N 36°00' E 014°39'612.8
2017-Jun-25 00:30N 36°05' E 014°44'612.8
2017-Jun-25 00:00N 36°10' E 014°49'612.8
2017-Jun-24 23:30N 36°15' E 014°54'712.7
2017-Jun-24 23:00N 36°20' E 014°59'612.7
2017-Jun-24 22:30N 36°24' E 015°05'712.9
2017-Jun-24 22:00N 36°29' E 015°10'712.9
2017-Jun-24 21:30N 36°34' E 015°16'612.5
2017-Jun-24 21:00N 36°39' E 015°21'612.6
2017-Jun-24 20:30N 36°44' E 015°26'612.3
2017-Jun-24 20:00N 36°48' E 015°31'612.4
2017-Jun-24 19:30N 36°53' E 015°35'612.4
2017-Jun-24 19:00N 36°58' E 015°40'612.3
2017-Jun-24 18:30N 37°03' E 015°45'612.3
2017-Jun-24 18:00N 37°08' E 015°50'612.8
2017-Jun-24 17:30N 37°13' E 015°55'815.6
2017-Jun-24 17:00N 37°19' E 016°01'815.5
2017-Jun-24 16:30N 37°25' E 016°07'1015.7
2017-Jun-24 15:53N 37°33' E 016°14'615.7
2017-Jun-24 15:30N 37°38' E 016°19'815.7
2017-Jun-24 14:58N 37°44' E 016°25'13516.2
2017-Jun-24 06:37N 39°31' E 018°11'218.8
2017-Jun-24 06:30N 39°33' E 018°13'157 5.0
2017-Jun-22 23:23N 42°09' E 017°58'14 8.5
2017-Jun-22 21:43N 42°04' E 018°16'7 6.9
2017-Jun-22 20:42N 42°08' E 018°24'73 3.2
2017-Jun-21 21:52N 40°60' E 018°59'1116.1
2017-Jun-21 21:09N 40°49' E 019°03'216.0
2017-Jun-21 21:00N 40°46' E 019°03'1015.9
2017-Jun-21 20:23N 40°37' E 019°07'615.6
2017-Jun-21 20:00N 40°31' E 019°09'816.0
2017-Jun-21 19:30N 40°24' E 019°13'816.3
2017-Jun-21 19:00N 40°16' E 019°17'  
2017-Jun-18 21:43N 36°02' E 014°53'313.1
2017-Jun-18 21:30N 36°01' E 014°49'713.1
2017-Jun-18 21:00N 35°58' E 014°42'612.8
2017-Jun-18 20:30N 35°55' E 014°35'3 0.2
2017-Jun-18 01:47N 35°54' E 014°31'2 7.9
2017-Jun-18 01:30N 35°55' E 014°34'511.0
2017-Jun-18 01:00N 35°59' E 014°39'612.7
2017-Jun-18 00:30N 36°03' E 014°44'612.5
2017-Jun-18 00:00N 36°07' E 014°50'612.4
2017-Jun-17 23:29N 36°11' E 014°56'712.5
2017-Jun-17 22:54N 36°17' E 015°02'610.9
2017-Jun-17 22:23N 36°20' E 015°08'513.0
2017-Jun-17 22:00N 36°23' E 015°13'815.7
2017-Jun-17 21:30N 36°29' E 015°20'715.0
2017-Jun-17 21:00N 36°34' E 015°26'815.9
2017-Jun-17 20:30N 36°42' E 015°27'816.0
2017-Jun-17 20:00N 36°50' E 015°27'815.9
2017-Jun-17 19:30N 36°58' E 015°27'27 1.8
2017-Jun-17 03:54N 37°25' E 015°28'615.9
2017-Jun-17 03:30N 37°24' E 015°35'815.8
2017-Jun-17 02:59N 37°23' E 015°46'815.4
2017-Jun-17 02:28N 37°22' E 015°55'715.4
2017-Jun-17 02:00N 37°20' E 016°04'815.7
2017-Jun-17 01:28N 37°18' E 016°14'716.0
2017-Jun-17 01:00N 37°16' E 016°23'816.1
2017-Jun-17 00:30N 37°15' E 016°33'816.1
2017-Jun-17 00:00N 37°13' E 016°44'1016.4
2017-Jun-16 23:23N 37°11' E 016°56'616.3
2017-Jun-16 23:00N 37°10' E 017°03'816.1
2017-Jun-16 22:30N 37°08' E 017°13'  
Track history (hours):
 
Tides and Currents Weather Stations Pressure Air Temp Water Temp Dewpoint Dewpoint Depression Visibility Wind Speed Wind Dir Waves Ship Positions

Celebrity Mercury

Last reported at 2017-Jun-25 08:28 UTC. Time now 2017-Jun-25 08:39 UTC.
Position N 35°53' E 014°31'.

Length 264 m; draft 8.5 m.

Type: Passenger vessel. MMSI: 249053000.

Date/timePositionNaut miles runAvg speedWind from/ knotsBaromVisibWave heightAir tempDewpointWater temp
2017-Jun-25 08:28N 35°53' E 014°31'0 0.0
2017-Jun-25 07:55N 35°53' E 014°31'0 0.0
2017-Jun-25 07:28N 35°53' E 014°31'0 0.0
2017-Jun-25 06:58N 35°53' E 014°31'0 0.0
2017-Jun-25 06:28N 35°53' E 014°31'0 0.0
2017-Jun-25 05:55N 35°53' E 014°31'0 0.0
2017-Jun-25 05:28N 35°53' E 014°31'0 0.0
2017-Jun-25 04:58N 35°53' E 014°31'0 0.0
2017-Jun-25 04:28N 35°53' E 014°31'0 0.0
2017-Jun-25 03:58N 35°53' E 014°31'0 0.0
2017-Jun-25 03:28N 35°53' E 014°31'0 0.0
2017-Jun-25 02:58N 35°53' E 014°31'0 0.0
2017-Jun-25 02:30N 35°53' E 014°31'0 0.4
2017-Jun-25 02:00N 35°54' E 014°31'4 7.6
2017-Jun-25 01:30N 35°56' E 014°35'611.8
2017-Jun-25 01:00N 36°00' E 014°39'612.8
2017-Jun-25 00:30N 36°05' E 014°44'612.8
2017-Jun-25 00:00N 36°10' E 014°49'612.8
2017-Jun-24 23:30N 36°15' E 014°54'712.7
2017-Jun-24 23:00N 36°20' E 014°59'612.7
2017-Jun-24 22:30N 36°24' E 015°05'712.9
2017-Jun-24 22:00N 36°29' E 015°10'712.9
2017-Jun-24 21:30N 36°34' E 015°16'612.5
2017-Jun-24 21:00N 36°39' E 015°21'612.6
2017-Jun-24 20:30N 36°44' E 015°26'612.3
2017-Jun-24 20:00N 36°48' E 015°31'612.4
2017-Jun-24 19:30N 36°53' E 015°35'612.4
2017-Jun-24 19:00N 36°58' E 015°40'612.3
2017-Jun-24 18:30N 37°03' E 015°45'612.3
2017-Jun-24 18:00N 37°08' E 015°50'612.8
2017-Jun-24 17:30N 37°13' E 015°55'815.6
2017-Jun-24 17:00N 37°19' E 016°01'815.5
2017-Jun-24 16:30N 37°25' E 016°07'1015.7
2017-Jun-24 15:53N 37°33' E 016°14'615.7
2017-Jun-24 15:30N 37°38' E 016°19'815.7
2017-Jun-24 14:58N 37°44' E 016°25'13516.2
2017-Jun-24 06:37N 39°31' E 018°11'218.8
2017-Jun-24 06:30N 39°33' E 018°13'157 5.0
2017-Jun-22 23:23N 42°09' E 017°58'14 8.5
2017-Jun-22 21:43N 42°04' E 018°16'7 6.9
2017-Jun-22 20:42N 42°08' E 018°24'73 3.2
2017-Jun-21 21:52N 40°60' E 018°59'1116.1
2017-Jun-21 21:09N 40°49' E 019°03'216.0
2017-Jun-21 21:00N 40°46' E 019°03'1015.9
2017-Jun-21 20:23N 40°37' E 019°07'615.6
2017-Jun-21 20:00N 40°31' E 019°09'816.0
2017-Jun-21 19:30N 40°24' E 019°13'816.3
2017-Jun-21 19:00N 40°16' E 019°17'  
2017-Jun-18 21:43N 36°02' E 014°53'313.1
2017-Jun-18 21:30N 36°01' E 014°49'713.1
2017-Jun-18 21:00N 35°58' E 014°42'612.8
2017-Jun-18 20:30N 35°55' E 014°35'3 0.2
2017-Jun-18 01:47N 35°54' E 014°31'2 7.9
2017-Jun-18 01:30N 35°55' E 014°34'511.0
2017-Jun-18 01:00N 35°59' E 014°39'612.7
2017-Jun-18 00:30N 36°03' E 014°44'612.5
2017-Jun-18 00:00N 36°07' E 014°50'612.4
2017-Jun-17 23:29N 36°11' E 014°56'712.5
2017-Jun-17 22:54N 36°17' E 015°02'610.9
2017-Jun-17 22:23N 36°20' E 015°08'513.0
2017-Jun-17 22:00N 36°23' E 015°13'815.7
2017-Jun-17 21:30N 36°29' E 015°20'715.0
2017-Jun-17 21:00N 36°34' E 015°26'815.9
2017-Jun-17 20:30N 36°42' E 015°27'816.0
2017-Jun-17 20:00N 36°50' E 015°27'815.9
2017-Jun-17 19:30N 36°58' E 015°27'27 1.8
2017-Jun-17 03:54N 37°25' E 015°28'615.9
2017-Jun-17 03:30N 37°24' E 015°35'815.8
2017-Jun-17 02:59N 37°23' E 015°46'815.4
2017-Jun-17 02:28N 37°22' E 015°55'715.4
2017-Jun-17 02:00N 37°20' E 016°04'815.7
2017-Jun-17 01:28N 37°18' E 016°14'716.0
2017-Jun-17 01:00N 37°16' E 016°23'816.1
2017-Jun-17 00:30N 37°15' E 016°33'816.1
2017-Jun-17 00:00N 37°13' E 016°44'1016.4
2017-Jun-16 23:23N 37°11' E 016°56'616.3
2017-Jun-16 23:00N 37°10' E 017°03'816.1
2017-Jun-16 22:30N 37°08' E 017°13'  

Dump ship's entire track history